sensor_id;sensor_type;location;lat;lon;timestamp;P1;durP1;ratioP1;P2;durP2;ratioP2
22336;SDS011;14992;50.844;4.418;2023-06-14T00:01:10;5.63;;;4.72;;
22336;SDS011;14992;50.844;4.418;2023-06-14T00:03:41;8.07;;;4.57;;
22336;SDS011;14992;50.844;4.418;2023-06-14T00:06:10;6.85;;;5.40;;
22336;SDS011;14992;50.844;4.418;2023-06-14T00:08:39;6.72;;;5.00;;
22336;SDS011;14992;50.844;4.418;2023-06-14T00:11:08;6.60;;;5.20;;
22336;SDS011;14992;50.844;4.418;2023-06-14T00:13:37;6.45;;;5.00;;
22336;SDS011;14992;50.844;4.418;2023-06-14T00:16:07;5.57;;;4.97;;
22336;SDS011;14992;50.844;4.418;2023-06-14T00:18:36;6.18;;;5.15;;
22336;SDS011;14992;50.844;4.418;2023-06-14T00:21:07;7.22;;;5.15;;
22336;SDS011;14992;50.844;4.418;2023-06-14T00:23:37;7.03;;;5.07;;
22336;SDS011;14992;50.844;4.418;2023-06-14T00:26:06;6.38;;;5.55;;
22336;SDS011;14992;50.844;4.418;2023-06-14T00:28:35;6.78;;;5.10;;
22336;SDS011;14992;50.844;4.418;2023-06-14T00:31:06;6.40;;;4.90;;
22336;SDS011;14992;50.844;4.418;2023-06-14T00:33:35;9.25;;;4.72;;
22336;SDS011;14992;50.844;4.418;2023-06-14T00:36:04;7.72;;;4.88;;
22336;SDS011;14992;50.844;4.418;2023-06-14T00:38:35;7.25;;;5.57;;
22336;SDS011;14992;50.844;4.418;2023-06-14T00:41:03;7.55;;;5.07;;
22336;SDS011;14992;50.844;4.418;2023-06-14T00:43:34;8.25;;;5.22;;
22336;SDS011;14992;50.844;4.418;2023-06-14T00:46:02;7.60;;;4.80;;
22336;SDS011;14992;50.844;4.418;2023-06-14T00:48:31;7.20;;;5.15;;
22336;SDS011;14992;50.844;4.418;2023-06-14T00:51:03;9.82;;;5.38;;
22336;SDS011;14992;50.844;4.418;2023-06-14T00:56:46;6.10;;;4.95;;
22336;SDS011;14992;50.844;4.418;2023-06-14T00:59:15;6.15;;;5.30;;
22336;SDS011;14992;50.844;4.418;2023-06-14T01:01:44;6.57;;;5.57;;
22336;SDS011;14992;50.844;4.418;2023-06-14T01:04:15;6.82;;;4.70;;
22336;SDS011;14992;50.844;4.418;2023-06-14T01:06:49;6.63;;;4.93;;
22336;SDS011;14992;50.844;4.418;2023-06-14T01:09:31;8.63;;;5.30;;
22336;SDS011;14992;50.844;4.418;2023-06-14T01:12:09;7.15;;;5.43;;
22336;SDS011;14992;50.844;4.418;2023-06-14T01:14:43;10.27;;;5.40;;
22336;SDS011;14992;50.844;4.418;2023-06-14T01:17:14;7.30;;;5.28;;
22336;SDS011;14992;50.844;4.418;2023-06-14T01:19:44;6.72;;;5.25;;
22336;SDS011;14992;50.844;4.418;2023-06-14T01:22:13;7.90;;;5.10;;
22336;SDS011;14992;50.844;4.418;2023-06-14T01:24:44;6.20;;;4.97;;
22336;SDS011;14992;50.844;4.418;2023-06-14T01:27:13;9.15;;;5.10;;
22336;SDS011;14992;50.844;4.418;2023-06-14T01:29:43;5.65;;;5.07;;
22336;SDS011;14992;50.844;4.418;2023-06-14T01:32:14;9.27;;;5.40;;
22336;SDS011;14992;50.844;4.418;2023-06-14T01:34:45;6.95;;;5.95;;
22336;SDS011;14992;50.844;4.418;2023-06-14T01:37:14;7.65;;;5.68;;
22336;SDS011;14992;50.844;4.418;2023-06-14T01:39:45;7.40;;;5.13;;
22336;SDS011;14992;50.844;4.418;2023-06-14T01:42:18;8.48;;;5.43;;
22336;SDS011;14992;50.844;4.418;2023-06-14T01:44:48;7.30;;;5.60;;
22336;SDS011;14992;50.844;4.418;2023-06-14T01:47:19;7.88;;;5.43;;
22336;SDS011;14992;50.844;4.418;2023-06-14T01:49:49;8.98;;;5.35;;
22336;SDS011;14992;50.844;4.418;2023-06-14T01:52:18;6.95;;;5.68;;
22336;SDS011;14992;50.844;4.418;2023-06-14T01:54:50;9.25;;;5.25;;
22336;SDS011;14992;50.844;4.418;2023-06-14T01:57:19;9.10;;;5.78;;
22336;SDS011;14992;50.844;4.418;2023-06-14T01:59:49;6.45;;;5.57;;
22336;SDS011;14992;50.844;4.418;2023-06-14T02:02:18;6.97;;;5.20;;
22336;SDS011;14992;50.844;4.418;2023-06-14T02:04:47;8.32;;;6.32;;
22336;SDS011;14992;50.844;4.418;2023-06-14T02:07:16;8.05;;;5.88;;
22336;SDS011;14992;50.844;4.418;2023-06-14T02:09:45;6.22;;;5.43;;
22336;SDS011;14992;50.844;4.418;2023-06-14T02:12:15;7.43;;;5.72;;
22336;SDS011;14992;50.844;4.418;2023-06-14T02:14:44;8.07;;;5.63;;
22336;SDS011;14992;50.844;4.418;2023-06-14T02:17:13;8.48;;;6.57;;
22336;SDS011;14992;50.844;4.418;2023-06-14T02:19:43;8.35;;;6.00;;
22336;SDS011;14992;50.844;4.418;2023-06-14T02:22:12;9.13;;;6.70;;
22336;SDS011;14992;50.844;4.418;2023-06-14T02:24:42;10.10;;;6.38;;
22336;SDS011;14992;50.844;4.418;2023-06-14T02:27:12;8.63;;;5.75;;
22336;SDS011;14992;50.844;4.418;2023-06-14T02:29:44;7.78;;;6.20;;
22336;SDS011;14992;50.844;4.418;2023-06-14T02:32:13;7.57;;;6.38;;
22336;SDS011;14992;50.844;4.418;2023-06-14T02:34:42;9.57;;;6.43;;
22336;SDS011;14992;50.844;4.418;2023-06-14T02:37:14;9.20;;;6.20;;
22336;SDS011;14992;50.844;4.418;2023-06-14T02:39:43;8.43;;;6.82;;
22336;SDS011;14992;50.844;4.418;2023-06-14T02:42:12;6.97;;;6.28;;
22336;SDS011;14992;50.844;4.418;2023-06-14T02:44:41;9.52;;;6.93;;
22336;SDS011;14992;50.844;4.418;2023-06-14T02:47:12;9.25;;;6.72;;
22336;SDS011;14992;50.844;4.418;2023-06-14T02:49:43;9.18;;;7.30;;
22336;SDS011;14992;50.844;4.418;2023-06-14T02:52:14;8.27;;;6.65;;
22336;SDS011;14992;50.844;4.418;2023-06-14T02:54:43;9.07;;;7.20;;
22336;SDS011;14992;50.844;4.418;2023-06-14T02:57:15;9.70;;;7.45;;
22336;SDS011;14992;50.844;4.418;2023-06-14T02:59:43;7.97;;;6.93;;
22336;SDS011;14992;50.844;4.418;2023-06-14T03:02:14;9.18;;;6.63;;
22336;SDS011;14992;50.844;4.418;2023-06-14T03:04:43;8.77;;;6.75;;
22336;SDS011;14992;50.844;4.418;2023-06-14T03:07:17;8.75;;;6.72;;
22336;SDS011;14992;50.844;4.418;2023-06-14T03:09:49;9.73;;;7.13;;
22336;SDS011;14992;50.844;4.418;2023-06-14T03:12:19;10.68;;;7.20;;
22336;SDS011;14992;50.844;4.418;2023-06-14T03:14:48;8.30;;;6.32;;
22336;SDS011;14992;50.844;4.418;2023-06-14T03:17:22;8.13;;;7.07;;
22336;SDS011;14992;50.844;4.418;2023-06-14T03:19:52;11.43;;;7.13;;
22336;SDS011;14992;50.844;4.418;2023-06-14T03:22:20;11.45;;;7.28;;
22336;SDS011;14992;50.844;4.418;2023-06-14T03:24:50;8.82;;;6.93;;
22336;SDS011;14992;50.844;4.418;2023-06-14T03:27:19;10.52;;;6.82;;
22336;SDS011;14992;50.844;4.418;2023-06-14T03:29:48;11.02;;;7.53;;
22336;SDS011;14992;50.844;4.418;2023-06-14T03:32:17;10.35;;;7.10;;
22336;SDS011;14992;50.844;4.418;2023-06-14T03:34:47;7.55;;;6.75;;
22336;SDS011;14992;50.844;4.418;2023-06-14T03:37:21;8.32;;;7.43;;
22336;SDS011;14992;50.844;4.418;2023-06-14T03:39:50;8.07;;;6.80;;
22336;SDS011;14992;50.844;4.418;2023-06-14T03:42:22;10.80;;;7.35;;
22336;SDS011;14992;50.844;4.418;2023-06-14T03:44:51;8.55;;;6.60;;
22336;SDS011;14992;50.844;4.418;2023-06-14T03:47:22;9.07;;;7.05;;
22336;SDS011;14992;50.844;4.418;2023-06-14T03:49:53;8.57;;;6.72;;
22336;SDS011;14992;50.844;4.418;2023-06-14T03:52:22;11.43;;;7.32;;
22336;SDS011;14992;50.844;4.418;2023-06-14T03:54:51;10.05;;;6.88;;
22336;SDS011;14992;50.844;4.418;2023-06-14T03:57:23;9.68;;;6.90;;
22336;SDS011;14992;50.844;4.418;2023-06-14T03:59:54;8.68;;;7.15;;
22336;SDS011;14992;50.844;4.418;2023-06-14T04:02:23;9.00;;;6.72;;
22336;SDS011;14992;50.844;4.418;2023-06-14T04:04:55;8.98;;;7.72;;
22336;SDS011;14992;50.844;4.418;2023-06-14T04:07:24;12.05;;;7.05;;
22336;SDS011;14992;50.844;4.418;2023-06-14T04:09:55;7.18;;;6.47;;
22336;SDS011;14992;50.844;4.418;2023-06-14T04:12:24;9.25;;;6.78;;
22336;SDS011;14992;50.844;4.418;2023-06-14T04:14:53;10.95;;;7.50;;
22336;SDS011;14992;50.844;4.418;2023-06-14T04:17:31;9.65;;;7.47;;
22336;SDS011;14992;50.844;4.418;2023-06-14T04:20:04;12.57;;;7.13;;
22336;SDS011;14992;50.844;4.418;2023-06-14T04:22:38;11.10;;;7.70;;
22336;SDS011;14992;50.844;4.418;2023-06-14T04:25:08;9.25;;;6.85;;
22336;SDS011;14992;50.844;4.418;2023-06-14T04:27:42;8.25;;;7.20;;
22336;SDS011;14992;50.844;4.418;2023-06-14T04:30:11;11.02;;;7.10;;
22336;SDS011;14992;50.844;4.418;2023-06-14T04:32:47;10.20;;;7.20;;
22336;SDS011;14992;50.844;4.418;2023-06-14T04:35:18;11.27;;;8.02;;
22336;SDS011;14992;50.844;4.418;2023-06-14T04:37:47;9.32;;;7.38;;
22336;SDS011;14992;50.844;4.418;2023-06-14T04:40:17;8.90;;;6.60;;
22336;SDS011;14992;50.844;4.418;2023-06-14T04:42:47;10.13;;;7.20;;
22336;SDS011;14992;50.844;4.418;2023-06-14T04:45:18;8.68;;;7.30;;
22336;SDS011;14992;50.844;4.418;2023-06-14T04:47:50;9.80;;;7.22;;
22336;SDS011;14992;50.844;4.418;2023-06-14T04:50:24;11.20;;;7.88;;
22336;SDS011;14992;50.844;4.418;2023-06-14T04:52:53;8.98;;;7.22;;
22336;SDS011;14992;50.844;4.418;2023-06-14T04:55:22;8.70;;;6.97;;
22336;SDS011;14992;50.844;4.418;2023-06-14T04:57:51;10.95;;;7.13;;
22336;SDS011;14992;50.844;4.418;2023-06-14T05:00:21;10.23;;;7.47;;
22336;SDS011;14992;50.844;4.418;2023-06-14T05:02:50;10.05;;;7.93;;
22336;SDS011;14992;50.844;4.418;2023-06-14T05:05:21;9.75;;;6.97;;
22336;SDS011;14992;50.844;4.418;2023-06-14T05:07:51;12.25;;;7.63;;
22336;SDS011;14992;50.844;4.418;2023-06-14T05:10:20;9.90;;;7.25;;
22336;SDS011;14992;50.844;4.418;2023-06-14T05:12:49;10.93;;;7.78;;
22336;SDS011;14992;50.844;4.418;2023-06-14T05:15:19;12.10;;;7.55;;
22336;SDS011;14992;50.844;4.418;2023-06-14T05:17:53;10.45;;;7.35;;
22336;SDS011;14992;50.844;4.418;2023-06-14T05:20:23;10.30;;;7.57;;
22336;SDS011;14992;50.844;4.418;2023-06-14T05:22:55;9.00;;;7.32;;
22336;SDS011;14992;50.844;4.418;2023-06-14T05:25:24;11.30;;;7.30;;
22336;SDS011;14992;50.844;4.418;2023-06-14T05:27:55;11.00;;;7.72;;
22336;SDS011;14992;50.844;4.418;2023-06-14T05:30:24;17.10;;;8.25;;
22336;SDS011;14992;50.844;4.418;2023-06-14T05:32:53;8.38;;;7.55;;
22336;SDS011;14992;50.844;4.418;2023-06-14T05:35:22;10.75;;;7.28;;
22336;SDS011;14992;50.844;4.418;2023-06-14T05:37:55;11.02;;;7.97;;
22336;SDS011;14992;50.844;4.418;2023-06-14T05:40:23;13.90;;;7.88;;
22336;SDS011;14992;50.844;4.418;2023-06-14T05:42:52;9.88;;;7.13;;
22336;SDS011;14992;50.844;4.418;2023-06-14T05:45:21;8.43;;;7.50;;
22336;SDS011;14992;50.844;4.418;2023-06-14T05:47:50;11.95;;;6.97;;
22336;SDS011;14992;50.844;4.418;2023-06-14T05:50:21;12.80;;;7.82;;
22336;SDS011;14992;50.844;4.418;2023-06-14T05:52:50;9.88;;;7.18;;
22336;SDS011;14992;50.844;4.418;2023-06-14T05:55:21;12.43;;;7.40;;
22336;SDS011;14992;50.844;4.418;2023-06-14T05:57:49;11.15;;;8.20;;
22336;SDS011;14992;50.844;4.418;2023-06-14T06:00:19;10.90;;;7.82;;
22336;SDS011;14992;50.844;4.418;2023-06-14T06:02:48;11.10;;;7.68;;
22336;SDS011;14992;50.844;4.418;2023-06-14T06:05:17;15.18;;;7.07;;
22336;SDS011;14992;50.844;4.418;2023-06-14T06:07:46;11.27;;;7.07;;
22336;SDS011;14992;50.844;4.418;2023-06-14T06:10:16;13.27;;;7.10;;
22336;SDS011;14992;50.844;4.418;2023-06-14T06:12:46;9.95;;;7.50;;
22336;SDS011;14992;50.844;4.418;2023-06-14T06:15:16;11.57;;;7.18;;
22336;SDS011;14992;50.844;4.418;2023-06-14T06:17:46;11.73;;;7.63;;
22336;SDS011;14992;50.844;4.418;2023-06-14T06:20:22;10.80;;;6.85;;
22336;SDS011;14992;50.844;4.418;2023-06-14T06:22:56;10.50;;;7.55;;
22336;SDS011;14992;50.844;4.418;2023-06-14T06:25:26;10.65;;;7.13;;
22336;SDS011;14992;50.844;4.418;2023-06-14T06:27:56;9.57;;;7.10;;
22336;SDS011;14992;50.844;4.418;2023-06-14T06:30:25;11.57;;;7.57;;
22336;SDS011;14992;50.844;4.418;2023-06-14T06:32:54;10.93;;;6.97;;
22336;SDS011;14992;50.844;4.418;2023-06-14T06:35:23;10.18;;;7.07;;
22336;SDS011;14992;50.844;4.418;2023-06-14T06:37:52;10.38;;;6.68;;
22336;SDS011;14992;50.844;4.418;2023-06-14T06:40:22;10.43;;;7.25;;
22336;SDS011;14992;50.844;4.418;2023-06-14T06:42:51;8.52;;;6.35;;
22336;SDS011;14992;50.844;4.418;2023-06-14T06:45:22;14.07;;;6.47;;
22336;SDS011;14992;50.844;4.418;2023-06-14T06:47:52;8.27;;;6.38;;
22336;SDS011;14992;50.844;4.418;2023-06-14T06:50:22;9.68;;;6.88;;
22336;SDS011;14992;50.844;4.418;2023-06-14T06:52:54;10.27;;;6.18;;
22336;SDS011;14992;50.844;4.418;2023-06-14T06:55:23;7.90;;;6.18;;
22336;SDS011;14992;50.844;4.418;2023-06-14T06:57:52;7.97;;;6.30;;
22336;SDS011;14992;50.844;4.418;2023-06-14T07:00:23;9.77;;;6.60;;
22336;SDS011;14992;50.844;4.418;2023-06-14T07:02:54;9.68;;;6.22;;
22336;SDS011;14992;50.844;4.418;2023-06-14T07:05:24;9.63;;;6.28;;
22336;SDS011;14992;50.844;4.418;2023-06-14T07:07:53;8.90;;;6.00;;
22336;SDS011;14992;50.844;4.418;2023-06-14T07:10:24;9.32;;;6.07;;
22336;SDS011;14992;50.844;4.418;2023-06-14T07:12:53;7.03;;;5.80;;
22336;SDS011;14992;50.844;4.418;2023-06-14T07:15:23;8.93;;;6.07;;
22336;SDS011;14992;50.844;4.418;2023-06-14T07:17:52;9.48;;;6.50;;
22336;SDS011;14992;50.844;4.418;2023-06-14T07:20:26;10.30;;;6.03;;
22336;SDS011;14992;50.844;4.418;2023-06-14T07:22:56;9.85;;;5.47;;
22336;SDS011;14992;50.844;4.418;2023-06-14T07:25:25;9.98;;;5.82;;
22336;SDS011;14992;50.844;4.418;2023-06-14T07:27:54;7.05;;;5.32;;
22336;SDS011;14992;50.844;4.418;2023-06-14T07:30:24;7.97;;;5.53;;
22336;SDS011;14992;50.844;4.418;2023-06-14T07:32:57;8.75;;;5.68;;
22336;SDS011;14992;50.844;4.418;2023-06-14T07:35:26;9.43;;;5.85;;
22336;SDS011;14992;50.844;4.418;2023-06-14T07:37:55;11.25;;;6.18;;
22336;SDS011;14992;50.844;4.418;2023-06-14T07:40:24;8.13;;;5.97;;
22336;SDS011;14992;50.844;4.418;2023-06-14T07:42:53;6.43;;;5.57;;
22336;SDS011;14992;50.844;4.418;2023-06-14T07:45:22;10.77;;;5.30;;
22336;SDS011;14992;50.844;4.418;2023-06-14T07:47:53;9.02;;;5.60;;
22336;SDS011;14992;50.844;4.418;2023-06-14T07:50:22;9.55;;;5.78;;
22336;SDS011;14992;50.844;4.418;2023-06-14T07:52:51;9.32;;;5.50;;
22336;SDS011;14992;50.844;4.418;2023-06-14T07:55:20;10.35;;;6.18;;
22336;SDS011;14992;50.844;4.418;2023-06-14T07:57:49;8.32;;;5.93;;
22336;SDS011;14992;50.844;4.418;2023-06-14T08:00:18;8.43;;;5.82;;
22336;SDS011;14992;50.844;4.418;2023-06-14T08:02:49;7.30;;;5.57;;
22336;SDS011;14992;50.844;4.418;2023-06-14T08:05:24;8.15;;;5.32;;
22336;SDS011;14992;50.844;4.418;2023-06-14T08:07:54;10.48;;;5.70;;
22336;SDS011;14992;50.844;4.418;2023-06-14T08:10:23;10.85;;;5.90;;
22336;SDS011;14992;50.844;4.418;2023-06-14T08:12:55;5.85;;;5.07;;
22336;SDS011;14992;50.844;4.418;2023-06-14T08:15:24;6.50;;;5.30;;
22336;SDS011;14992;50.844;4.418;2023-06-14T08:17:54;7.53;;;5.35;;
22336;SDS011;14992;50.844;4.418;2023-06-14T08:20:23;7.28;;;5.28;;
22336;SDS011;14992;50.844;4.418;2023-06-14T08:22:52;8.25;;;6.15;;
22336;SDS011;14992;50.844;4.418;2023-06-14T08:25:24;10.13;;;5.50;;
22336;SDS011;14992;50.844;4.418;2023-06-14T08:27:53;11.55;;;5.75;;
22336;SDS011;14992;50.844;4.418;2023-06-14T08:30:22;8.32;;;5.25;;
22336;SDS011;14992;50.844;4.418;2023-06-14T08:32:51;8.90;;;6.00;;
22336;SDS011;14992;50.844;4.418;2023-06-14T08:35:26;7.30;;;6.00;;
22336;SDS011;14992;50.844;4.418;2023-06-14T08:37:55;8.90;;;5.80;;
22336;SDS011;14992;50.844;4.418;2023-06-14T08:40:24;7.13;;;5.50;;
22336;SDS011;14992;50.844;4.418;2023-06-14T08:42:54;9.15;;;5.90;;
22336;SDS011;14992;50.844;4.418;2023-06-14T08:45:24;7.32;;;5.72;;
22336;SDS011;14992;50.844;4.418;2023-06-14T08:47:56;9.13;;;5.85;;
22336;SDS011;14992;50.844;4.418;2023-06-14T08:50:28;8.38;;;5.25;;
22336;SDS011;14992;50.844;4.418;2023-06-14T08:53:02;7.57;;;5.82;;
22336;SDS011;14992;50.844;4.418;2023-06-14T08:55:31;7.13;;;6.05;;
22336;SDS011;14992;50.844;4.418;2023-06-14T09:00:32;9.48;;;5.43;;
22336;SDS011;14992;50.844;4.418;2023-06-14T09:03:02;9.27;;;5.68;;
22336;SDS011;14992;50.844;4.418;2023-06-14T09:05:42;11.10;;;6.28;;
22336;SDS011;14992;50.844;4.418;2023-06-14T09:08:15;12.45;;;6.07;;
22336;SDS011;14992;50.844;4.418;2023-06-14T09:10:46;9.35;;;6.22;;
22336;SDS011;14992;50.844;4.418;2023-06-14T09:13:15;9.23;;;6.25;;
22336;SDS011;14992;50.844;4.418;2023-06-14T09:15:45;7.95;;;6.32;;
22336;SDS011;14992;50.844;4.418;2023-06-14T09:18:14;6.40;;;5.78;;
22336;SDS011;14992;50.844;4.418;2023-06-14T09:20:45;8.20;;;5.10;;
22336;SDS011;14992;50.844;4.418;2023-06-14T09:23:19;9.07;;;5.43;;
22336;SDS011;14992;50.844;4.418;2023-06-14T09:25:50;8.02;;;5.45;;
22336;SDS011;14992;50.844;4.418;2023-06-14T09:28:19;10.98;;;5.50;;
22336;SDS011;14992;50.844;4.418;2023-06-14T09:30:49;14.55;;;6.95;;
22336;SDS011;14992;50.844;4.418;2023-06-14T09:33:18;13.45;;;6.40;;
22336;SDS011;14992;50.844;4.418;2023-06-14T09:35:51;13.18;;;6.25;;
22336;SDS011;14992;50.844;4.418;2023-06-14T09:38:23;10.27;;;5.70;;
22336;SDS011;14992;50.844;4.418;2023-06-14T09:40:55;8.23;;;4.85;;
22336;SDS011;14992;50.844;4.418;2023-06-14T09:43:27;5.72;;;5.15;;
22336;SDS011;14992;50.844;4.418;2023-06-14T09:45:56;8.75;;;5.25;;
22336;SDS011;14992;50.844;4.418;2023-06-14T09:48:26;11.02;;;5.25;;
22336;SDS011;14992;50.844;4.418;2023-06-14T09:50:56;9.85;;;5.78;;
22336;SDS011;14992;50.844;4.418;2023-06-14T09:53:29;10.82;;;5.10;;
22336;SDS011;14992;50.844;4.418;2023-06-14T09:55:59;10.32;;;5.15;;
22336;SDS011;14992;50.844;4.418;2023-06-14T09:58:29;6.32;;;5.35;;
22336;SDS011;14992;50.844;4.418;2023-06-14T10:00:59;8.05;;;4.85;;
22336;SDS011;14992;50.844;4.418;2023-06-14T10:03:28;11.75;;;5.40;;
22336;SDS011;14992;50.844;4.418;2023-06-14T10:06:19;7.07;;;4.97;;
22336;SDS011;14992;50.844;4.418;2023-06-14T10:08:51;7.72;;;5.15;;
22336;SDS011;14992;50.844;4.418;2023-06-14T10:11:22;8.48;;;5.22;;
22336;SDS011;14992;50.844;4.418;2023-06-14T10:13:51;11.15;;;6.13;;
22336;SDS011;14992;50.844;4.418;2023-06-14T10:16:23;7.30;;;5.00;;
22336;SDS011;14992;50.844;4.418;2023-06-14T10:19:00;6.22;;;5.47;;
22336;SDS011;14992;50.844;4.418;2023-06-14T10:24:12;7.88;;;5.47;;
22336;SDS011;14992;50.844;4.418;2023-06-14T10:26:50;7.72;;;6.00;;
22336;SDS011;14992;50.844;4.418;2023-06-14T10:29:21;6.40;;;5.18;;
22336;SDS011;14992;50.844;4.418;2023-06-14T10:31:53;8.57;;;5.82;;
22336;SDS011;14992;50.844;4.418;2023-06-14T10:34:25;7.95;;;5.25;;
22336;SDS011;14992;50.844;4.418;2023-06-14T10:37:06;9.10;;;5.80;;
22336;SDS011;14992;50.844;4.418;2023-06-14T10:39:41;8.05;;;5.30;;
22336;SDS011;14992;50.844;4.418;2023-06-14T10:42:11;7.25;;;5.68;;
22336;SDS011;14992;50.844;4.418;2023-06-14T10:44:41;6.43;;;5.25;;
22336;SDS011;14992;50.844;4.418;2023-06-14T10:47:21;13.57;;;6.70;;
22336;SDS011;14992;50.844;4.418;2023-06-14T10:50:03;8.93;;;6.97;;
22336;SDS011;14992;50.844;4.418;2023-06-14T10:52:38;10.00;;;5.72;;
22336;SDS011;14992;50.844;4.418;2023-06-14T10:55:12;14.25;;;8.38;;
22336;SDS011;14992;50.844;4.418;2023-06-14T10:57:43;10.35;;;5.05;;
22336;SDS011;14992;50.844;4.418;2023-06-14T11:00:19;8.90;;;6.15;;
22336;SDS011;14992;50.844;4.418;2023-06-14T11:02:53;11.27;;;5.28;;
22336;SDS011;14992;50.844;4.418;2023-06-14T11:05:49;7.47;;;4.57;;
22336;SDS011;14992;50.844;4.418;2023-06-14T11:11:36;5.68;;;4.38;;
22336;SDS011;14992;50.844;4.418;2023-06-14T11:14:06;7.57;;;4.45;;
22336;SDS011;14992;50.844;4.418;2023-06-14T11:16:35;6.47;;;4.18;;
22336;SDS011;14992;50.844;4.418;2023-06-14T11:19:05;8.75;;;4.68;;
22336;SDS011;14992;50.844;4.418;2023-06-14T11:21:34;7.72;;;4.30;;
22336;SDS011;14992;50.844;4.418;2023-06-14T11:24:11;6.53;;;4.07;;
22336;SDS011;14992;50.844;4.418;2023-06-14T11:26:40;9.40;;;4.45;;
22336;SDS011;14992;50.844;4.418;2023-06-14T11:29:09;9.80;;;4.47;;
22336;SDS011;14992;50.844;4.418;2023-06-14T11:31:38;7.13;;;4.13;;
22336;SDS011;14992;50.844;4.418;2023-06-14T11:34:12;6.85;;;4.47;;
22336;SDS011;14992;50.844;4.418;2023-06-14T11:36:42;6.03;;;3.88;;
22336;SDS011;14992;50.844;4.418;2023-06-14T11:39:14;9.18;;;4.93;;
22336;SDS011;14992;50.844;4.418;2023-06-14T11:41:44;5.43;;;4.20;;
22336;SDS011;14992;50.844;4.418;2023-06-14T11:44:13;11.00;;;4.53;;
22336;SDS011;14992;50.844;4.418;2023-06-14T11:46:42;8.25;;;4.35;;
22336;SDS011;14992;50.844;4.418;2023-06-14T11:49:12;9.52;;;5.05;;
22336;SDS011;14992;50.844;4.418;2023-06-14T11:51:42;6.95;;;4.72;;
22336;SDS011;14992;50.844;4.418;2023-06-14T11:54:11;6.65;;;4.47;;
22336;SDS011;14992;50.844;4.418;2023-06-14T11:56:42;11.43;;;5.40;;
22336;SDS011;14992;50.844;4.418;2023-06-14T11:59:12;6.82;;;4.03;;
22336;SDS011;14992;50.844;4.418;2023-06-14T12:01:42;7.90;;;4.13;;
22336;SDS011;14992;50.844;4.418;2023-06-14T12:04:12;10.57;;;4.18;;
22336;SDS011;14992;50.844;4.418;2023-06-14T12:06:41;8.30;;;4.20;;
22336;SDS011;14992;50.844;4.418;2023-06-14T12:09:10;7.05;;;4.10;;
22336;SDS011;14992;50.844;4.418;2023-06-14T12:11:45;11.40;;;4.65;;
22336;SDS011;14992;50.844;4.418;2023-06-14T12:14:15;7.53;;;4.22;;
22336;SDS011;14992;50.844;4.418;2023-06-14T12:16:44;5.35;;;3.47;;
22336;SDS011;14992;50.844;4.418;2023-06-14T12:19:14;6.13;;;3.88;;
22336;SDS011;14992;50.844;4.418;2023-06-14T12:21:45;9.15;;;4.07;;
22336;SDS011;14992;50.844;4.418;2023-06-14T12:24:16;6.10;;;3.67;;
22336;SDS011;14992;50.844;4.418;2023-06-14T12:26:46;8.68;;;3.90;;
22336;SDS011;14992;50.844;4.418;2023-06-14T12:29:15;6.45;;;3.75;;
22336;SDS011;14992;50.844;4.418;2023-06-14T12:31:47;8.30;;;4.05;;
22336;SDS011;14992;50.844;4.418;2023-06-14T12:34:16;7.85;;;4.10;;
22336;SDS011;14992;50.844;4.418;2023-06-14T12:36:45;6.35;;;3.55;;
22336;SDS011;14992;50.844;4.418;2023-06-14T12:39:14;5.03;;;3.55;;
22336;SDS011;14992;50.844;4.418;2023-06-14T12:41:43;7.32;;;3.78;;
22336;SDS011;14992;50.844;4.418;2023-06-14T12:44:13;6.65;;;3.92;;
22336;SDS011;14992;50.844;4.418;2023-06-14T12:46:43;7.40;;;3.70;;
22336;SDS011;14992;50.844;4.418;2023-06-14T12:49:12;6.70;;;4.00;;
22336;SDS011;14992;50.844;4.418;2023-06-14T12:51:43;9.43;;;3.65;;
22336;SDS011;14992;50.844;4.418;2023-06-14T12:54:12;8.00;;;3.50;;
22336;SDS011;14992;50.844;4.418;2023-06-14T12:56:51;5.35;;;3.47;;
22336;SDS011;14992;50.844;4.418;2023-06-14T12:59:23;8.50;;;3.42;;
22336;SDS011;14992;50.844;4.418;2023-06-14T13:01:52;5.38;;;3.20;;
22336;SDS011;14992;50.844;4.418;2023-06-14T13:04:21;6.53;;;3.80;;
22336;SDS011;14992;50.844;4.418;2023-06-14T13:06:50;7.85;;;3.88;;
22336;SDS011;14992;50.844;4.418;2023-06-14T13:09:19;5.25;;;4.00;;
22336;SDS011;14992;50.844;4.418;2023-06-14T13:11:48;6.07;;;3.22;;
22336;SDS011;14992;50.844;4.418;2023-06-14T13:14:19;6.60;;;3.20;;
22336;SDS011;14992;50.844;4.418;2023-06-14T13:16:53;4.53;;;3.25;;
22336;SDS011;14992;50.844;4.418;2023-06-14T13:19:23;6.72;;;3.05;;
22336;SDS011;14992;50.844;4.418;2023-06-14T13:21:52;5.18;;;4.10;;
22336;SDS011;14992;50.844;4.418;2023-06-14T13:24:21;11.57;;;2.80;;
22336;SDS011;14992;50.844;4.418;2023-06-14T13:26:50;6.63;;;3.05;;
22336;SDS011;14992;50.844;4.418;2023-06-14T13:29:19;9.98;;;2.67;;
22336;SDS011;14992;50.844;4.418;2023-06-14T13:31:48;4.78;;;2.65;;
22336;SDS011;14992;50.844;4.418;2023-06-14T13:34:20;5.72;;;3.15;;
22336;SDS011;14992;50.844;4.418;2023-06-14T13:36:50;4.70;;;2.70;;
22336;SDS011;14992;50.844;4.418;2023-06-14T13:39:20;5.13;;;2.92;;
22336;SDS011;14992;50.844;4.418;2023-06-14T13:41:49;3.28;;;2.30;;
22336;SDS011;14992;50.844;4.418;2023-06-14T13:44:18;8.38;;;2.80;;
22336;SDS011;14992;50.844;4.418;2023-06-14T13:46:48;5.82;;;2.70;;
22336;SDS011;14992;50.844;4.418;2023-06-14T13:49:20;2.83;;;2.03;;
22336;SDS011;14992;50.844;4.418;2023-06-14T13:51:49;3.08;;;2.30;;
22336;SDS011;14992;50.844;4.418;2023-06-14T13:54:19;4.22;;;2.58;;
22336;SDS011;14992;50.844;4.418;2023-06-14T13:56:49;6.07;;;2.30;;
22336;SDS011;14992;50.844;4.418;2023-06-14T13:59:18;6.22;;;2.38;;
22336;SDS011;14992;50.844;4.418;2023-06-14T14:01:47;5.03;;;2.40;;
22336;SDS011;14992;50.844;4.418;2023-06-14T14:04:17;4.95;;;1.95;;
22336;SDS011;14992;50.844;4.418;2023-06-14T14:06:47;3.15;;;2.25;;
22336;SDS011;14992;50.844;4.418;2023-06-14T14:09:16;4.97;;;2.80;;
22336;SDS011;14992;50.844;4.418;2023-06-14T14:11:46;4.10;;;2.30;;
22336;SDS011;14992;50.844;4.418;2023-06-14T14:16:47;2.88;;;1.77;;
22336;SDS011;14992;50.844;4.418;2023-06-14T14:19:18;3.83;;;2.10;;
22336;SDS011;14992;50.844;4.418;2023-06-14T14:21:52;3.25;;;1.70;;
22336;SDS011;14992;50.844;4.418;2023-06-14T14:24:21;2.72;;;1.70;;
22336;SDS011;14992;50.844;4.418;2023-06-14T14:26:50;2.83;;;1.60;;
22336;SDS011;14992;50.844;4.418;2023-06-14T14:29:20;3.85;;;1.40;;
22336;SDS011;14992;50.844;4.418;2023-06-14T14:31:53;2.67;;;1.65;;
22336;SDS011;14992;50.844;4.418;2023-06-14T14:34:25;2.17;;;1.58;;
22336;SDS011;14992;50.844;4.418;2023-06-14T14:36:55;2.40;;;1.40;;
22336;SDS011;14992;50.844;4.418;2023-06-14T14:39:24;4.63;;;1.50;;
22336;SDS011;14992;50.844;4.418;2023-06-14T14:41:53;3.38;;;1.70;;
22336;SDS011;14992;50.844;4.418;2023-06-14T14:44:22;2.67;;;1.60;;
22336;SDS011;14992;50.844;4.418;2023-06-14T14:46:51;3.40;;;1.67;;
22336;SDS011;14992;50.844;4.418;2023-06-14T14:49:21;3.08;;;1.30;;
22336;SDS011;14992;50.844;4.418;2023-06-14T14:51:50;3.80;;;1.55;;
22336;SDS011;14992;50.844;4.418;2023-06-14T14:54:22;2.67;;;1.30;;
22336;SDS011;14992;50.844;4.418;2023-06-14T14:56:52;3.92;;;2.10;;
22336;SDS011;14992;50.844;4.418;2023-06-14T14:59:21;6.05;;;2.00;;
22336;SDS011;14992;50.844;4.418;2023-06-14T15:01:51;1.52;;;1.13;;
22336;SDS011;14992;50.844;4.418;2023-06-14T15:04:22;1.63;;;1.30;;
22336;SDS011;14992;50.844;4.418;2023-06-14T15:06:51;1.95;;;1.48;;
22336;SDS011;14992;50.844;4.418;2023-06-14T15:09:24;2.40;;;1.60;;
22336;SDS011;14992;50.844;4.418;2023-06-14T15:11:53;3.72;;;1.73;;
22336;SDS011;14992;50.844;4.418;2023-06-14T15:14:23;2.85;;;1.45;;
22336;SDS011;14992;50.844;4.418;2023-06-14T15:16:53;6.47;;;1.60;;
22336;SDS011;14992;50.844;4.418;2023-06-14T15:19:22;2.63;;;1.48;;